Time;durP1;ratioP1;P1;durP2;ratioP2;P2;SDS_P1;SDS_P2;PMS_P1;PMS_P2;Temp;Humidity;BMP_temperature;BMP_pressure;BME280_temperature;BME280_humidity;BME280_pressure;Samples;Min_cycle;Max_cycle;Signal;HPM_P1;HPM_P2
2023/01/31 04:01:21;;;;;;;28.95;3.90;;;5.00;99.90;;;;;;6217212;22;20023;-77
2023/01/31 04:03:55;;;;;;;26.08;4.15;;;5.10;99.90;;;;;;6276159;22;20328;-76
2023/01/31 04:06:21;;;;;;;20.83;3.42;;;5.10;99.90;;;;;;6275779;22;20073;-76
2023/01/31 04:08:47;;;;;;;15.88;2.42;;;5.20;99.90;;;;;;6275871;22;20020;-77
2023/01/31 04:11:14;;;;;;;14.98;2.95;;;5.20;99.90;;;;;;6249698;22;20008;-76
2023/01/31 04:13:41;;;;;;;21.20;3.13;;;5.20;99.90;;;;;;6275759;22;20089;-78
2023/01/31 04:16:07;;;;;;;20.92;3.25;;;5.30;99.90;;;;;;6275728;22;20440;-78
2023/01/31 04:18:33;;;;;;;29.30;3.22;;;5.30;99.90;;;;;;6277204;22;20039;-78
2023/01/31 04:20:58;;;;;;;27.65;4.00;;;5.30;99.90;;;;;;6277169;22;20012;-78
2023/01/31 04:23:25;;;;;;;21.55;3.15;;;5.30;99.90;;;;;;6277546;22;20035;-77
2023/01/31 04:25:53;;;;;;;34.47;5.70;;;5.30;99.90;;;;;;6275962;22;20016;-78
2023/01/31 04:28:19;;;;;;;20.77;3.75;;;5.30;99.90;;;;;;6275648;22;20020;-75
2023/01/31 04:30:45;;;;;;;20.52;2.75;;;5.30;99.90;;;;;;6275659;22;20028;-77
2023/01/31 04:33:10;;;;;;;27.02;3.88;;;5.30;99.90;;;;;;6277734;22;20030;-76
2023/01/31 04:35:39;;;;;;;30.60;3.95;;;5.30;99.90;;;;;;6276641;22;20012;-77
2023/01/31 04:38:05;;;;;;;23.70;3.95;;;5.30;99.90;;;;;;6275864;22;20016;-76
2023/01/31 04:40:30;;;;;;;22.60;3.22;;;5.30;99.90;;;;;;6277041;22;20022;-76
2023/01/31 04:42:56;;;;;;;27.77;4.60;;;5.30;99.90;;;;;;6277732;22;20065;-78
2023/01/31 04:45:22;;;;;;;15.10;2.83;;;5.30;99.90;;;;;;6275414;22;20007;-78
2023/01/31 04:47:47;;;;;;;26.83;4.78;;;5.30;99.90;;;;;;6275394;22;20027;-77
2023/01/31 04:50:13;;;;;;;23.88;4.32;;;5.30;99.90;;;;;;6275251;22;20007;-77
2023/01/31 04:52:38;;;;;;;28.77;5.35;;;5.30;99.90;;;;;;6275399;22;20016;-75
2023/01/31 04:55:04;;;;;;;25.10;3.58;;;5.40;99.90;;;;;;6277073;22;20019;-76
2023/01/31 04:57:30;;;;;;;18.02;3.28;;;5.30;99.90;;;;;;6276435;22;20337;-78
2023/01/31 04:59:56;;;;;;;29.25;4.57;;;5.30;99.90;;;;;;6275657;22;20030;-80
2023/01/31 05:02:22;;;;;;;36.38;3.90;;;5.30;99.90;;;;;;6275018;22;20016;-79
2023/01/31 05:04:48;;;;;;;26.35;5.10;;;5.30;99.90;;;;;;6275847;22;20012;-80
2023/01/31 05:07:13;;;;;;;24.27;4.60;;;5.30;99.90;;;;;;6275718;22;20091;-76
2023/01/31 05:09:41;;;;;;;26.55;3.80;;;5.30;99.90;;;;;;6277279;22;20007;-76
2023/01/31 05:12:08;;;;;;;29.33;4.10;;;5.30;99.90;;;;;;6277181;22;20373;-79
2023/01/31 05:14:33;;;;;;;41.25;5.20;;;5.30;99.90;;;;;;6275379;22;20016;-77
2023/01/31 05:16:59;;;;;;;23.77;3.25;;;5.30;99.90;;;;;;6276660;22;20070;-76
2023/01/31 05:19:25;;;;;;;22.60;5.57;;;5.30;99.90;;;;;;6275258;22;20023;-78
2023/01/31 05:21:59;;;;;;;31.58;5.47;;;5.20;99.90;;;;;;6275219;22;20068;-77
2023/01/31 05:24:30;;;;;;;29.25;4.25;;;5.20;99.90;;;;;;6275020;22;20027;-74
2023/01/31 05:26:58;;;;;;;26.75;4.43;;;5.20;99.90;;;;;;6277077;22;20067;-78
2023/01/31 05:29:28;;;;;;;25.85;4.32;;;5.20;99.90;;;;;;6275198;22;20397;-75
2023/01/31 05:31:55;;;;;;;13.55;2.63;;;5.20;99.90;;;;;;6275099;22;20012;-76
2023/01/31 05:34:24;;;;;;;32.67;4.35;;;5.20;99.90;;;;;;6276678;22;20007;-77
2023/01/31 05:36:52;;;;;;;32.28;4.90;;;5.20;99.90;;;;;;6275095;22;20015;-74
2023/01/31 05:39:18;;;;;;;27.23;4.82;;;5.20;99.90;;;;;;6277272;22;20007;-78
2023/01/31 05:41:44;;;;;;;30.90;5.90;;;5.20;99.90;;;;;;6274927;22;20023;-78
2023/01/31 05:44:10;;;;;;;38.22;6.72;;;5.20;99.90;;;;;;6275332;22;20334;-76
2023/01/31 05:46:36;;;;;;;34.00;4.93;;;5.30;99.90;;;;;;6274870;22;20015;-73
2023/01/31 05:49:02;;;;;;;34.20;5.43;;;5.30;99.90;;;;;;6277371;22;20011;-77
2023/01/31 05:51:28;;;;;;;21.30;4.18;;;5.30;99.90;;;;;;6276951;22;20050;-78
2023/01/31 05:53:54;;;;;;;28.60;4.80;;;5.30;99.90;;;;;;6275171;22;20007;-78
2023/01/31 05:56:20;;;;;;;26.55;5.88;;;5.30;99.90;;;;;;6275804;22;20016;-74
2023/01/31 05:58:49;;;;;;;32.67;4.53;;;5.40;99.90;;;;;;6275331;22;20408;-75
2023/01/31 06:01:20;;;;;;;22.58;3.58;;;5.40;99.90;;;;;;6276885;22;20019;-77
2023/01/31 06:03:46;;;;;;;30.33;5.53;;;5.40;99.90;;;;;;6276998;22;20084;-75
2023/01/31 06:06:12;;;;;;;25.30;5.43;;;5.50;99.90;;;;;;6275256;22;20069;-78
2023/01/31 06:08:38;;;;;;;34.42;6.72;;;5.50;99.90;;;;;;6275211;22;20376;-75
2023/01/31 06:11:04;;;;;;;31.77;5.15;;;5.50;99.90;;;;;;6275190;22;20016;-79
2023/01/31 06:13:31;;;;;;;28.52;5.25;;;5.50;99.90;;;;;;6275393;22;20097;-78
2023/01/31 06:15:57;;;;;;;23.75;4.65;;;5.60;99.90;;;;;;6277245;22;20008;-76
2023/01/31 06:18:22;;;;;;;27.20;5.32;;;5.60;99.90;;;;;;6249344;22;20059;-75
2023/01/31 06:20:48;;;;;;;32.30;5.95;;;5.60;99.90;;;;;;6276549;22;20023;-76
2023/01/31 06:23:14;;;;;;;26.40;4.47;;;5.60;99.90;;;;;;6276414;22;20008;-78
2023/01/31 06:25:39;;;;;;;20.20;3.92;;;5.60;99.90;;;;;;6274844;22;20286;-76
2023/01/31 06:28:05;;;;;;;27.15;4.68;;;5.60;99.90;;;;;;6276151;22;20015;-75
2023/01/31 06:30:31;;;;;;;30.48;4.28;;;5.60;99.90;;;;;;6276849;22;20027;-76
2023/01/31 06:32:58;;;;;;;23.92;3.72;;;5.60;99.90;;;;;;6274801;22;20078;-75
2023/01/31 06:35:26;;;;;;;30.85;4.88;;;5.60;99.90;;;;;;6277314;22;20003;-78
2023/01/31 06:37:54;;;;;;;32.83;4.75;;;5.70;99.90;;;;;;6277289;22;20015;-77
2023/01/31 06:40:20;;;;;;;28.67;4.97;;;5.70;99.90;;;;;;6278983;22;20012;-78
2023/01/31 06:42:45;;;;;;;30.25;4.03;;;5.70;99.90;;;;;;6278990;22;20010;-79
2023/01/31 06:45:11;;;;;;;31.65;5.47;;;5.70;99.90;;;;;;6277162;22;20012;-78
2023/01/31 06:47:37;;;;;;;20.40;3.53;;;5.80;99.90;;;;;;6278921;22;20008;-78
2023/01/31 06:50:03;;;;;;;24.92;3.80;;;5.80;99.90;;;;;;6277120;22;20011;-77
2023/01/31 06:52:28;;;;;;;21.15;3.45;;;5.80;99.90;;;;;;6276962;22;20007;-76
2023/01/31 06:54:54;;;;;;;29.48;3.80;;;5.80;99.90;;;;;;6278727;22;20489;-77
2023/01/31 06:57:19;;;;;;;18.83;4.00;;;5.80;99.90;;;;;;6276923;22;20015;-80
2023/01/31 06:59:45;;;;;;;35.63;5.93;;;5.80;99.90;;;;;;6278964;22;20008;-77
2023/01/31 07:02:11;;;;;;;25.95;3.58;;;5.80;99.90;;;;;;6277083;22;20015;-75
2023/01/31 07:04:37;;;;;;;19.17;3.88;;;5.80;99.90;;;;;;6276699;22;20012;-80
2023/01/31 07:07:02;;;;;;;28.05;3.60;;;5.90;99.90;;;;;;6276953;22;20016;-77
2023/01/31 07:09:28;;;;;;;27.13;3.78;;;5.90;99.90;;;;;;6277193;22;20385;-76
2023/01/31 07:11:53;;;;;;;32.40;4.00;;;5.90;99.90;;;;;;6276704;22;20337;-77
2023/01/31 07:14:19;;;;;;;19.98;2.83;;;5.90;99.90;;;;;;6251251;22;20077;-79
2023/01/31 07:16:45;;;;;;;22.92;4.32;;;5.90;99.90;;;;;;6277246;22;20019;-77
2023/01/31 07:19:10;;;;;;;21.38;3.60;;;5.80;99.90;;;;;;6278498;22;20433;-78
2023/01/31 07:21:36;;;;;;;27.98;4.60;;;5.90;99.90;;;;;;6278559;22;20014;-80
2023/01/31 07:24:03;;;;;;;18.92;3.00;;;5.80;99.90;;;;;;6251493;22;20015;-80
2023/01/31 07:26:29;;;;;;;15.93;3.53;;;5.90;99.90;;;;;;6278330;22;20015;-77
2023/01/31 07:28:54;;;;;;;29.83;3.83;;;5.90;99.90;;;;;;6276807;22;20015;-76
2023/01/31 07:31:20;;;;;;;28.98;3.40;;;5.90;99.90;;;;;;6276831;22;20026;-78
2023/01/31 07:33:46;;;;;;;15.75;2.67;;;5.90;99.90;;;;;;6276702;22;20015;-78
2023/01/31 07:36:14;;;;;;;23.25;4.30;;;5.80;99.90;;;;;;6278174;22;20031;-80
2023/01/31 07:38:40;;;;;;;20.42;3.75;;;5.80;99.90;;;;;;6276397;22;20016;-80
2023/01/31 07:41:07;;;;;;;20.65;4.00;;;5.80;99.90;;;;;;6276380;22;20467;-80
2023/01/31 07:43:33;;;;;;;22.77;3.33;;;5.80;99.90;;;;;;6275362;22;20346;-78
2023/01/31 07:45:59;;;;;;;26.90;3.42;;;5.80;99.90;;;;;;6278236;22;20012;-75
2023/01/31 07:48:25;;;;;;;29.17;3.45;;;5.80;99.90;;;;;;6250989;22;20015;-79
2023/01/31 07:51:00;;;;;;;14.10;3.15;;;5.90;99.90;;;;;;6276512;22;20310;-77
2023/01/31 07:53:27;;;;;;;17.67;3.40;;;5.90;99.90;;;;;;6250869;22;20425;-79
2023/01/31 07:55:53;;;;;;;21.55;4.20;;;5.90;99.90;;;;;;6278873;22;20523;-78
2023/01/31 07:58:19;;;;;;;19.38;3.17;;;5.90;99.90;;;;;;6278117;22;20015;-77
2023/01/31 08:03:33;;;;;;;17.17;3.00;;;5.90;99.90;;;;;;6276726;22;20440;-76
2023/01/31 08:06:07;;;;;;;20.40;3.50;;;5.90;99.90;;;;;;6251624;22;20118;-77
2023/01/31 08:08:32;;;;;;;19.77;2.88;;;5.90;99.90;;;;;;6278841;22;20012;-76
2023/01/31 08:10:58;;;;;;;21.73;3.67;;;6.00;99.90;;;;;;6276290;22;20050;-77
2023/01/31 08:13:25;;;;;;;20.30;2.67;;;6.00;99.90;;;;;;6276402;22;20023;-75
2023/01/31 08:15:52;;;;;;;12.48;2.17;;;6.00;99.90;;;;;;6275943;22;20019;-76
2023/01/31 08:18:18;;;;;;;11.15;2.33;;;6.00;99.90;;;;;;6276296;22;20016;-78
2023/01/31 08:20:44;;;;;;;17.05;2.95;;;6.00;99.90;;;;;;6276478;22;20012;-81
2023/01/31 08:23:10;;;;;;;10.52;1.67;;;6.00;99.90;;;;;;6276349;22;20097;-76
2023/01/31 08:25:35;;;;;;;22.15;3.08;;;6.00;99.90;;;;;;6250729;22;20034;-80
2023/01/31 08:28:02;;;;;;;18.33;3.17;;;6.10;99.90;;;;;;6276673;22;20326;-77
2023/01/31 08:30:28;;;;;;;15.63;2.90;;;6.10;99.90;;;;;;6276164;22;20019;-81
2023/01/31 08:32:54;;;;;;;22.05;3.40;;;6.10;99.90;;;;;;6276217;22;20413;-79
2023/01/31 08:35:20;;;;;;;23.17;3.65;;;6.10;99.90;;;;;;6277752;22;20008;-80
2023/01/31 08:37:46;;;;;;;22.65;4.35;;;6.10;99.90;;;;;;6276455;22;20095;-83
2023/01/31 08:40:12;;;;;;;15.70;3.40;;;6.10;99.90;;;;;;6250806;22;20043;-78
2023/01/31 08:42:38;;;;;;;23.35;4.22;;;6.20;99.90;;;;;;6274710;22;20016;-76
2023/01/31 08:45:06;;;;;;;23.23;4.10;;;6.20;99.90;;;;;;6276462;22;20102;-79
2023/01/31 08:47:32;;;;;;;24.55;3.60;;;6.20;99.90;;;;;;6277159;22;20044;-82
2023/01/31 08:49:58;;;;;;;29.35;5.78;;;6.20;99.90;;;;;;6276180;22;20019;-78
2023/01/31 08:52:23;;;;;;;14.82;2.65;;;6.20;99.90;;;;;;6276960;22;20011;-82
2023/01/31 08:54:49;;;;;;;18.92;2.58;;;6.30;99.90;;;;;;6277389;22;20014;-77
2023/01/31 08:57:14;;;;;;;21.73;3.60;;;6.30;99.90;;;;;;6278969;22;20094;-78
2023/01/31 08:59:40;;;;;;;25.42;3.22;;;6.30;99.90;;;;;;6277150;22;20050;-78
2023/01/31 09:02:06;;;;;;;19.52;2.90;;;6.30;99.90;;;;;;6277166;22;20015;-79
2023/01/31 09:04:32;;;;;;;19.27;3.10;;;6.30;99.90;;;;;;6251570;22;20323;-81
2023/01/31 09:06:57;;;;;;;20.25;2.60;;;6.30;99.90;;;;;;6277046;22;20012;-79
2023/01/31 09:09:24;;;;;;;18.23;2.60;;;6.40;99.90;;;;;;6277352;22;20091;-81
2023/01/31 09:11:51;;;;;;;21.50;2.78;;;6.30;99.90;;;;;;6250817;22;20038;-78
2023/01/31 09:14:17;;;;;;;26.67;4.05;;;6.40;99.90;;;;;;6278750;22;20309;-83
2023/01/31 09:16:45;;;;;;;20.08;3.10;;;6.40;99.90;;;;;;6277495;22;20015;-77
2023/01/31 09:19:11;;;;;;;14.52;3.35;;;6.40;99.90;;;;;;6276901;22;20047;-80
2023/01/31 09:21:37;;;;;;;16.27;3.28;;;6.50;99.90;;;;;;6278347;22;20008;-78
2023/01/31 09:24:02;;;;;;;27.02;3.88;;;6.40;99.90;;;;;;6276826;22;20008;-79
2023/01/31 09:26:29;;;;;;;22.63;3.85;;;6.50;99.90;;;;;;6276440;22;20054;-79
2023/01/31 09:28:56;;;;;;;19.67;3.63;;;6.50;99.90;;;;;;6276802;22;20012;-78
2023/01/31 09:31:22;;;;;;;25.27;3.60;;;6.50;99.90;;;;;;6276440;22;20070;-83
2023/01/31 09:33:48;;;;;;;23.92;3.95;;;6.50;99.90;;;;;;6276709;22;20092;-82
2023/01/31 09:36:19;;;;;;;31.67;3.90;;;6.60;99.90;;;;;;6250804;22;20098;-82
2023/01/31 09:38:45;;;;;;;24.35;2.88;;;6.60;99.90;;;;;;6276604;22;20046;-84
2023/01/31 09:41:35;;;;;;;16.85;3.78;;;6.60;99.90;;;;;;6276540;22;20062;-77
2023/01/31 09:44:13;;;;;;;22.48;3.30;;;6.60;99.90;;;;;;6278672;22;20426;-81
2023/01/31 09:46:46;;;;;;;21.13;3.78;;;6.70;99.90;;;;;;6276569;22;20019;-82
2023/01/31 09:49:18;;;;;;;22.45;3.20;;;6.70;99.90;;;;;;6276710;22;20083;-80
2023/01/31 09:51:56;;;;;;;20.75;4.30;;;6.70;99.90;;;;;;6250804;22;20102;-77
2023/01/31 09:54:28;;;;;;;30.10;4.97;;;6.70;99.90;;;;;;6250949;22;20015;-84
2023/01/31 09:57:02;;;;;;;24.13;3.35;;;6.70;99.90;;;;;;6277952;22;20011;-83
2023/01/31 09:59:47;;;;;;;18.75;3.35;;;6.70;99.90;;;;;;6276091;22;20023;-81
2023/01/31 10:02:45;;;;;;;16.90;2.83;;;6.70;99.90;;;;;;6251209;22;20126;-77
2023/01/31 10:05:31;;;;;;;15.68;3.47;;;6.70;99.90;;;;;;6147676;22;20126;-79
2023/01/31 10:08:19;;;;;;;28.02;4.72;;;6.80;99.90;;;;;;6287514;22;20043;-76
2023/01/31 10:10:50;;;;;;;30.13;5.68;;;6.80;99.90;;;;;;6284177;22;20019;-81
2023/01/31 10:13:36;;;;;;;33.00;5.68;;;6.80;99.90;;;;;;6278066;22;20012;-81
2023/01/31 10:16:31;;;;;;;31.45;8.80;;;6.80;99.90;;;;;;6276335;22;20087;-81
2023/01/31 10:19:21;;;;;;;32.00;8.00;;;6.80;99.90;;;;;;6263650;22;20338;-79
2023/01/31 10:21:59;;;;;;;40.00;9.20;;;6.80;99.90;;;;;;6276679;22;20011;-78
2023/01/31 10:24:54;;;;;;;39.90;9.70;;;6.80;99.90;;;;;;6278011;22;20020;-80
2023/01/31 10:27:37;;;;;;;43.07;11.50;;;6.80;99.90;;;;;;6278453;22;20031;-78
2023/01/31 10:30:05;;;;;;;34.05;8.75;;;6.80;99.90;;;;;;6278324;22;20014;-81
2023/01/31 10:32:44;;;;;;;35.92;10.05;;;6.80;99.90;;;;;;6275971;22;20018;-78
2023/01/31 10:35:20;;;;;;;34.35;10.48;;;6.80;99.90;;;;;;6276220;22;20088;-81
2023/01/31 10:37:50;;;;;;;36.70;7.65;;;6.70;99.90;;;;;;6278020;22;20015;-81
2023/01/31 10:40:23;;;;;;;31.80;5.63;;;6.70;99.90;;;;;;6251194;22;20318;-77
2023/01/31 10:42:53;;;;;;;19.63;3.20;;;6.70;99.90;;;;;;6275447;22;20023;-79
2023/01/31 10:45:22;;;;;;;31.15;5.05;;;6.70;99.90;;;;;;6275468;22;20015;-79
2023/01/31 10:47:54;;;;;;;22.67;3.95;;;6.70;99.90;;;;;;6275785;22;20015;-80
2023/01/31 10:50:48;;;;;;;30.02;5.43;;;6.70;99.90;;;;;;6275628;22;20064;-82
2023/01/31 10:53:29;;;;;;;28.55;5.18;;;6.80;99.90;;;;;;6275631;22;20016;-81
2023/01/31 10:56:11;;;;;;;25.65;5.15;;;6.80;99.90;;;;;;6275581;22;20077;-83
2023/01/31 10:58:37;;;;;;;23.67;4.53;;;6.80;99.90;;;;;;6275229;22;20023;-76
2023/01/31 11:01:10;;;;;;;20.05;3.05;;;6.80;99.90;;;;;;6275285;22;20445;-81
2023/01/31 11:03:36;;;;;;;32.13;5.30;;;6.90;99.90;;;;;;6249660;22;20014;-80
2023/01/31 11:06:03;;;;;;;32.40;4.38;;;6.90;99.90;;;;;;6275452;22;20472;-79
2023/01/31 11:08:44;;;;;;;25.70;3.83;;;6.90;99.90;;;;;;6277267;22;20018;-81
2023/01/31 11:11:13;;;;;;;27.35;4.68;;;6.90;99.90;;;;;;6275857;22;20061;-82
2023/01/31 11:13:39;;;;;;;27.92;5.10;;;6.90;99.90;;;;;;6276045;22;20012;-83
2023/01/31 11:16:11;;;;;;;23.25;3.40;;;6.90;99.90;;;;;;6276541;22;20507;-80
2023/01/31 11:18:45;;;;;;;22.33;3.47;;;7.00;99.90;;;;;;6250170;22;20106;-79
2023/01/31 11:21:25;;;;;;;25.83;4.78;;;7.00;99.90;;;;;;6278601;22;20011;-77
2023/01/31 11:24:00;;;;;;;28.27;3.40;;;7.00;99.90;;;;;;6277735;22;20011;-81
2023/01/31 11:26:35;;;;;;;24.27;3.67;;;7.00;99.90;;;;;;6277471;22;20488;-79
2023/01/31 11:29:16;;;;;;;23.17;3.58;;;7.10;99.90;;;;;;6252038;22;20455;-81
2023/01/31 11:31:46;;;;;;;26.67;3.42;;;7.10;99.90;;;;;;6278760;22;20433;-78
2023/01/31 11:34:28;;;;;;;23.98;2.63;;;7.20;99.90;;;;;;6276987;22;20087;-82
2023/01/31 11:37:12;;;;;;;17.67;2.85;;;7.20;99.90;;;;;;6278579;22;20011;-82
2023/01/31 11:39:38;;;;;;;20.42;2.53;;;7.30;99.90;;;;;;6278312;22;20008;-83
2023/01/31 11:42:05;;;;;;;29.42;4.43;;;7.40;99.90;;;;;;6250680;22;20081;-78
2023/01/31 11:44:31;;;;;;;23.98;3.38;;;7.40;99.90;;;;;;6278606;22;20007;-82
2023/01/31 11:47:03;;;;;;;21.65;3.05;;;7.40;99.90;;;;;;6276927;22;20341;-78
2023/01/31 11:49:37;;;;;;;15.38;2.25;;;7.50;99.90;;;;;;6278511;22;20040;-82
2023/01/31 11:52:28;;;;;;;19.50;3.15;;;7.50;99.90;;;;;;6276649;22;20012;-79
2023/01/31 11:54:58;;;;;;;19.40;3.10;;;7.60;99.90;;;;;;6276461;22;20039;-80
2023/01/31 11:57:33;;;;;;;16.80;3.22;;;7.70;99.90;;;;;;6276546;22;20037;-81
2023/01/31 12:00:03;;;;;;;23.08;3.60;;;7.70;99.90;;;;;;6278270;22;20034;-82
2023/01/31 12:02:38;;;;;;;17.20;3.10;;;7.80;99.90;;;;;;6276923;22;20022;-78
2023/01/31 12:05:14;;;;;;;15.73;2.65;;;7.90;99.90;;;;;;6276382;22;20452;-78
2023/01/31 12:07:41;;;;;;;;;;;7.90;99.90;;;;;;6278607;22;20044;-79
2023/01/31 12:10:26;;;;;;;14.85;2.90;;;8.00;99.90;;;;;;6276755;22;20248;-80
2023/01/31 12:12:53;;;;;;;17.38;3.55;;;8.00;99.90;;;;;;6277123;22;20014;-81
2023/01/31 12:15:18;;;;;;;17.10;2.78;;;8.00;99.90;;;;;;6276737;22;20018;-78
2023/01/31 12:17:49;;;;;;;17.73;3.65;;;8.10;99.90;;;;;;6276818;22;20086;-81
2023/01/31 12:20:41;;;;;;;19.48;2.95;;;8.10;99.90;;;;;;6277135;22;20015;-82
2023/01/31 12:23:30;;;;;;;15.30;3.35;;;8.10;99.90;;;;;;6276824;22;20034;-81
2023/01/31 12:26:16;;;;;;;15.88;2.95;;;8.10;99.90;;;;;;6277001;22;20082;-80
2023/01/31 12:29:16;;;;;;;20.80;3.70;;;8.10;99.90;;;;;;6276738;22;20011;-80
2023/01/31 12:32:11;;;;;;;12.77;2.95;;;8.10;99.90;;;;;;6250719;22;20318;-81
2023/01/31 12:34:49;;;;;;;18.85;3.08;;;8.20;99.90;;;;;;6260838;22;20073;-79
2023/01/31 12:37:42;;;;;;;20.88;4.53;;;8.20;99.90;;;;;;6277140;22;20058;-79
2023/01/31 12:40:20;;;;;;;22.95;2.97;;;8.20;99.90;;;;;;6276500;22;20103;-78
2023/01/31 12:43:00;;;;;;;16.42;3.28;;;8.20;99.90;;;;;;6251195;22;20343;-80
2023/01/31 12:45:50;;;;;;;22.65;3.15;;;8.30;99.90;;;;;;6276545;22;20456;-80
2023/01/31 12:48:16;;;;;;;16.20;2.40;;;8.30;99.90;;;;;;6276497;22;20015;-80
2023/01/31 12:51:00;;;;;;;20.92;3.22;;;8.50;99.90;;;;;;6250967;22;20022;-79
2023/01/31 12:54:05;;;;;;;11.38;1.90;;;8.70;99.90;;;;;;6276708;22;20303;-82
2023/01/31 12:56:43;;;;;;;12.15;2.05;;;8.80;99.90;;;;;;6276562;22;20070;-81
2023/01/31 12:59:24;;;;;;;16.95;3.47;;;8.90;99.90;;;;;;6250766;22;20072;-80
2023/01/31 13:01:54;;;;;;;14.32;3.00;;;9.00;99.90;;;;;;6275925;22;20016;-78
2023/01/31 13:04:31;;;;;;;17.25;2.55;;;9.20;99.90;;;;;;6277957;22;20016;-81
2023/01/31 13:07:01;;;;;;;18.25;2.90;;;9.40;99.90;;;;;;6276399;22;20018;-82
2023/01/31 13:09:33;;;;;;;9.20;2.10;;;9.50;99.90;;;;;;6276321;22;20007;-80
2023/01/31 13:12:13;;;;;;;14.38;2.55;;;9.60;99.90;;;;;;6250443;22;20011;-82
2023/01/31 13:14:43;;;;;;;16.65;3.00;;;9.70;99.90;;;;;;6276414;22;20421;-82
2023/01/31 13:17:17;;;;;;;21.90;2.92;;;9.60;99.90;;;;;;6278108;22;20012;-82
2023/01/31 13:19:54;;;;;;;12.30;2.42;;;9.50;99.90;;;;;;6250768;22;20483;-82
2023/01/31 13:22:33;;;;;;;13.98;2.80;;;9.30;99.90;;;;;;6250495;22;20034;-77
2023/01/31 13:25:07;;;;;;;14.45;2.72;;;9.10;99.90;;;;;;6277437;22;20375;-82
2023/01/31 13:27:39;;;;;;;15.10;3.42;;;9.00;99.90;;;;;;6277023;22;20425;-79
2023/01/31 13:30:17;;;;;;;13.00;2.50;;;8.90;99.90;;;;;;6276110;22;20357;-82
2023/01/31 13:32:51;;;;;;;15.57;2.80;;;8.90;99.90;;;;;;6276069;22;20011;-82
2023/01/31 13:35:29;;;;;;;11.88;2.95;;;8.90;99.90;;;;;;6276230;22;20019;-80
2023/01/31 13:37:59;;;;;;;15.45;3.33;;;8.80;99.90;;;;;;6250706;22;20015;-84
2023/01/31 13:40:27;;;;;;;16.55;3.35;;;8.80;99.90;;;;;;6277694;22;20387;-79
2023/01/31 13:42:56;;;;;;;10.73;2.65;;;8.70;99.90;;;;;;6275875;22;20059;-79
2023/01/31 13:45:32;;;;;;;12.98;2.95;;;8.70;99.90;;;;;;6275720;22;20011;-81
2023/01/31 13:48:05;;;;;;;14.43;2.28;;;8.80;99.90;;;;;;6275326;22;20072;-81
2023/01/31 13:50:41;;;;;;;13.65;3.03;;;8.80;99.90;;;;;;6275580;22;20015;-79
2023/01/31 13:53:15;;;;;;;14.20;2.88;;;8.80;99.90;;;;;;6250669;22;20086;-83
2023/01/31 13:55:44;;;;;;;11.83;2.77;;;8.80;99.90;;;;;;6275637;22;20108;-78
2023/01/31 13:58:23;;;;;;;14.00;3.08;;;8.90;99.90;;;;;;6277768;22;20765;-82
2023/01/31 14:00:57;;;;;;;14.98;2.85;;;8.90;99.90;;;;;;6277960;22;20011;-78
2023/01/31 14:03:24;;;;;;;14.25;2.83;;;9.00;99.90;;;;;;6276879;22;20445;-79
2023/01/31 14:05:59;;;;;;;11.52;2.40;;;8.90;99.90;;;;;;6275598;22;20086;-80
2023/01/31 14:08:27;;;;;;;18.13;5.10;;;8.90;99.90;;;;;;6275820;22;20011;-83
2023/01/31 14:10:58;;;;;;;16.23;2.65;;;8.80;99.90;;;;;;6275750;22;20018;-80
2023/01/31 14:13:30;;;;;;;14.02;2.88;;;8.80;99.90;;;;;;6250391;22;20119;-81
2023/01/31 14:15:57;;;;;;;15.70;2.90;;;8.80;99.90;;;;;;6275358;22;20015;-79
2023/01/31 14:18:39;;;;;;;15.23;3.63;;;8.70;99.90;;;;;;6276988;22;20039;-77
2023/01/31 14:21:41;;;;;;;14.70;2.85;;;8.70;99.90;;;;;;6250384;22;20338;-79
2023/01/31 14:24:40;;;;;;;21.98;3.15;;;8.70;99.90;;;;;;6277037;22;20039;-79
2023/01/31 14:27:27;;;;;;;13.85;3.53;;;8.70;99.90;;;;;;6277342;22;20020;-77
2023/01/31 14:30:05;;;;;;;31.48;4.38;;;8.70;99.90;;;;;;6275047;22;20438;-82
2023/01/31 14:32:43;;;;;;;16.38;3.17;;;8.70;99.90;;;;;;6275005;22;20051;-76
2023/01/31 14:35:12;;;;;;;16.13;3.70;;;8.60;99.90;;;;;;6249923;22;20019;-79
2023/01/31 14:38:01;;;;;;;22.25;3.53;;;8.60;99.90;;;;;;6276844;22;20068;-80
2023/01/31 14:40:46;;;;;;;15.05;2.58;;;8.60;99.90;;;;;;6275435;22;20076;-81
2023/01/31 14:43:14;;;;;;;13.90;2.58;;;8.50;99.90;;;;;;6275215;22;20077;-83
2023/01/31 14:46:02;;;;;;;20.15;2.90;;;8.50;99.90;;;;;;6275345;22;20020;-81
2023/01/31 14:48:45;;;;;;;15.77;3.22;;;8.50;99.90;;;;;;6274856;22;20464;-78
2023/01/31 14:51:38;;;;;;;27.15;3.55;;;8.50;99.90;;;;;;6274924;22;20019;-81
2023/01/31 14:54:16;;;;;;;15.48;3.10;;;8.50;99.90;;;;;;6275144;22;20008;-79
2023/01/31 14:56:53;;;;;;;16.38;2.97;;;8.50;99.90;;;;;;6277892;22;20062;-80
2023/01/31 14:59:24;;;;;;;21.35;4.47;;;8.50;99.90;;;;;;6253821;22;20056;-75
2023/01/31 15:01:50;;;;;;;19.83;3.70;;;8.50;99.90;;;;;;6289962;22;20090;-78
2023/01/31 15:04:21;;;;;;;18.38;3.03;;;8.50;99.90;;;;;;6287528;22;20429;-81
2023/01/31 15:06:50;;;;;;;17.50;3.22;;;8.50;99.90;;;;;;6278199;22;20019;-79
2023/01/31 15:09:24;;;;;;;16.95;3.33;;;8.50;99.90;;;;;;6277604;22;20394;-79
2023/01/31 15:11:55;;;;;;;17.73;3.10;;;8.50;99.90;;;;;;6277550;22;20018;-77
2023/01/31 15:14:40;;;;;;;19.52;3.33;;;8.50;99.90;;;;;;6280246;22;20356;-79
2023/01/31 15:17:22;;;;;;;24.77;4.30;;;8.50;99.90;;;;;;6278504;22;20038;-81
2023/01/31 15:20:20;;;;;;;26.20;4.95;;;8.40;99.90;;;;;;6279759;22;20012;-81
2023/01/31 15:22:47;;;;;;;22.50;3.17;;;8.40;99.90;;;;;;6279193;22;20333;-80
2023/01/31 15:25:43;;;;;;;20.58;4.40;;;8.40;99.90;;;;;;6277605;22;20380;-78
2023/01/31 15:28:15;;;;;;;16.02;3.78;;;8.40;99.90;;;;;;6254315;22;20015;-79
2023/01/31 15:30:41;;;;;;;14.48;2.70;;;8.40;99.90;;;;;;6278781;22;20008;-78
2023/01/31 15:33:21;;;;;;;24.48;3.35;;;8.40;99.90;;;;;;6277043;22;20061;-77
2023/01/31 15:36:17;;;;;;;22.20;3.38;;;8.40;99.90;;;;;;6277088;22;20073;-80
2023/01/31 15:38:48;;;;;;;23.60;4.43;;;8.40;99.90;;;;;;6277267;22;20026;-83
2023/01/31 15:41:21;;;;;;;22.52;4.18;;;8.30;99.90;;;;;;6277095;22;20019;-79
2023/01/31 15:43:50;;;;;;;20.40;4.95;;;8.30;99.90;;;;;;6251103;22;20015;-76
2023/01/31 15:46:32;;;;;;;24.33;4.43;;;8.20;99.90;;;;;;6277009;22;20023;-78
2023/01/31 15:48:59;;;;;;;21.70;4.63;;;8.20;99.90;;;;;;6276872;22;20445;-80
2023/01/31 15:51:26;;;;;;;27.27;4.07;;;8.10;99.90;;;;;;6276094;22;20023;-80
2023/01/31 15:54:04;;;;;;;23.85;4.10;;;8.00;99.90;;;;;;6250523;22;20012;-76
2023/01/31 15:56:32;;;;;;;27.20;5.28;;;8.00;99.90;;;;;;6276818;22;20016;-77
2023/01/31 15:58:58;;;;;;;29.13;4.20;;;8.00;99.90;;;;;;6276155;22;20011;-78
2023/01/31 16:01:29;;;;;;;20.90;3.70;;;8.00;99.90;;;;;;6275910;22;20049;-80
2023/01/31 16:03:58;;;;;;;19.92;4.05;;;7.90;99.90;;;;;;6276410;22;20022;-83
2023/01/31 16:06:32;;;;;;;19.95;4.70;;;7.90;99.90;;;;;;6277544;22;20333;-79
2023/01/31 16:09:00;;;;;;;19.95;2.92;;;7.80;99.90;;;;;;6276173;22;20011;-78
2023/01/31 16:11:29;;;;;;;23.48;3.35;;;7.80;99.90;;;;;;6279257;22;20020;-81
2023/01/31 16:13:58;;;;;;;28.55;3.80;;;7.70;99.90;;;;;;6279716;22;20137;-79
2023/01/31 16:16:24;;;;;;;24.98;5.00;;;7.70;99.90;;;;;;6280044;22;20038;-83
2023/01/31 16:18:54;;;;;;;25.38;3.35;;;7.70;99.90;;;;;;6279038;22;20050;-82
2023/01/31 16:21:26;;;;;;;23.83;3.28;;;7.60;99.90;;;;;;6253079;22;20039;-80
2023/01/31 16:24:18;;;;;;;20.80;3.15;;;7.60;99.90;;;;;;6279654;22;20012;-80
2023/01/31 16:27:05;;;;;;;19.38;3.78;;;7.50;99.90;;;;;;6279292;22;20012;-80
2023/01/31 16:29:42;;;;;;;24.27;3.83;;;7.50;99.90;;;;;;6278582;22;20102;-82
2023/01/31 16:32:28;;;;;;;22.17;3.58;;;7.40;99.90;;;;;;6278002;22;20341;-80
2023/01/31 16:35:01;;;;;;;29.10;3.90;;;7.30;99.90;;;;;;6277931;22;20051;-80
2023/01/31 16:37:32;;;;;;;27.98;4.35;;;7.30;99.90;;;;;;6280069;22;20062;-79
2023/01/31 16:40:02;;;;;;;25.52;3.40;;;7.20;99.90;;;;;;6278838;22;20019;-80
2023/01/31 16:42:29;;;;;;;24.48;4.35;;;7.10;99.90;;;;;;6253452;22;20042;-82
2023/01/31 16:44:56;;;;;;;30.98;5.72;;;7.20;99.90;;;;;;6280137;22;20023;-83
2023/01/31 16:47:49;;;;;;;26.17;4.90;;;7.10;99.90;;;;;;6279442;22;20012;-79
2023/01/31 16:50:18;;;;;;;17.83;3.70;;;7.10;99.90;;;;;;6252387;22;20019;-79
2023/01/31 16:52:46;;;;;;;24.92;5.07;;;7.00;99.90;;;;;;6279345;22;20325;-81
2023/01/31 16:55:14;;;;;;;27.98;5.93;;;7.00;99.90;;;;;;6277294;22;20016;-80
2023/01/31 16:57:40;;;;;;;23.67;4.82;;;7.00;99.90;;;;;;6277133;22;20445;-81
2023/01/31 17:00:30;;;;;;;22.17;4.13;;;7.00;99.90;;;;;;6252064;22;20012;-81
2023/01/31 17:02:58;;;;;;;21.92;3.90;;;7.00;99.90;;;;;;6279316;22;20034;-83
2023/01/31 17:05:36;;;;;;;26.63;3.60;;;7.00;99.90;;;;;;6277601;22;20340;-83
2023/01/31 17:08:03;;;;;;;23.00;3.15;;;6.90;99.90;;;;;;6277662;22;20421;-81
2023/01/31 17:10:32;;;;;;;19.95;3.47;;;6.90;99.90;;;;;;6277595;22;20318;-84
2023/01/31 17:13:22;;;;;;;28.45;3.75;;;6.80;99.90;;;;;;6277208;22;20015;-79
2023/01/31 17:15:48;;;;;;;21.92;3.33;;;6.80;99.90;;;;;;6277280;22;20018;-80